Terminal Aerodrome Forecast
Issued by NWS Atlanta, GA

Home | Current Version | Previous Version | Text Only | Print | Product List | Glossary On
Versions: 1 2 3 4 5 6 7 8 9 10 11 12 13 14 15 16 17 18 19
000
FTUS42 KFFC 291137
TAFMCN
TAF
KMCN 291137Z 2912/3012 14004KT 6SM BR SCT250
     FM291300 17008KT P6SM SCT250
     FM291600 17008G18KT P6SM BKN050
     FM292000 16008G18KT P6SM SCT040
     FM300000 15007KT P6SM SCT250
     FM301000 14007KT P6SM SCT025=

USA.gov is the U.S. government's official web portal to all federal, state and local government web resources and services.